createdAt,value
2023-05-05T00:02:20.459Z,16.75
2023-05-05T00:04:47.917Z,16.72
2023-05-05T00:07:15.112Z,16.78
2023-05-05T00:09:43.559Z,16.76
2023-05-05T00:12:10.883Z,16.78
2023-05-05T00:14:38.422Z,16.80
2023-05-05T00:17:05.963Z,16.84
2023-05-05T00:19:33.305Z,16.83
2023-05-05T00:22:00.624Z,16.77
2023-05-05T00:24:28.276Z,16.83
2023-05-05T00:27:02.334Z,16.82
2023-05-05T00:29:31.029Z,16.81
2023-05-05T00:31:58.468Z,16.82
2023-05-05T00:34:26.079Z,16.74
2023-05-05T00:36:54.763Z,16.70
2023-05-05T00:39:22.920Z,16.66
2023-05-05T00:41:50.584Z,16.69
2023-05-05T00:44:17.850Z,16.59
2023-05-05T00:46:45.694Z,16.46
2023-05-05T00:49:13.264Z,16.51
2023-05-05T00:51:40.570Z,16.41
2023-05-05T00:54:08.646Z,16.23
2023-05-05T00:56:37.447Z,16.30
2023-05-05T00:59:04.905Z,16.06
2023-05-05T01:01:32.686Z,15.90
2023-05-05T01:04:00.295Z,16.05
2023-05-05T01:07:07.356Z,16.32
2023-05-05T01:10:25.945Z,16.18
2023-05-05T01:13:24.879Z,16.28
2023-05-05T01:16:28.614Z,16.18
2023-05-05T01:19:29.505Z,16.18
2023-05-05T01:22:03.365Z,16.17
2023-05-05T01:25:15.041Z,16.13
2023-05-05T01:28:04.472Z,16.14
2023-05-05T01:31:13.565Z,16.05
2023-05-05T01:33:51.442Z,15.85
2023-05-05T01:36:37.028Z,15.76
2023-05-05T01:39:13.096Z,15.61
2023-05-05T01:41:47.260Z,15.53
2023-05-05T01:44:18.773Z,15.66
2023-05-05T01:46:50.308Z,15.63
2023-05-05T01:49:17.687Z,15.61
2023-05-05T01:51:47.993Z,15.48
2023-05-05T01:54:17.587Z,15.55
2023-05-05T01:56:47.241Z,15.59
2023-05-05T01:59:16.930Z,15.62
2023-05-05T02:01:50.802Z,15.41
2023-05-05T02:04:22.818Z,15.36
2023-05-05T02:06:53.103Z,15.43
2023-05-05T02:09:24.828Z,15.45
2023-05-05T02:11:55.765Z,15.39
2023-05-05T02:14:29.883Z,15.42
2023-05-05T02:16:59.118Z,15.31
2023-05-05T02:19:38.578Z,15.39
2023-05-05T02:22:06.461Z,15.39
2023-05-05T02:24:34.734Z,15.40
2023-05-05T02:27:07.522Z,15.42
2023-05-05T02:29:43.685Z,15.42
2023-05-05T02:32:22.402Z,15.39
2023-05-05T02:34:53.186Z,15.39
2023-05-05T02:37:27.534Z,15.32
2023-05-05T02:40:08.836Z,15.02
2023-05-05T02:42:42.121Z,15.08
2023-05-05T02:45:17.758Z,15.08
2023-05-05T02:47:50.632Z,14.98
2023-05-05T02:50:18.046Z,14.88
2023-05-05T02:52:53.912Z,14.60
2023-05-05T02:55:43.005Z,14.65
2023-05-05T02:58:37.470Z,14.68
2023-05-05T03:01:22.364Z,14.52
2023-05-05T03:04:08.533Z,14.57
2023-05-05T03:06:47.736Z,14.62
2023-05-05T03:09:34.142Z,14.49
2023-05-05T03:12:08.584Z,14.44
2023-05-05T03:14:51.986Z,14.35
2023-05-05T03:17:21.720Z,14.25
2023-05-05T03:19:51.258Z,14.40
2023-05-05T03:22:19.943Z,14.50
2023-05-05T03:24:51.830Z,14.50
2023-05-05T03:27:24.318Z,14.55
2023-05-05T03:29:52.695Z,14.55
2023-05-05T03:32:21.387Z,14.52
2023-05-05T03:34:49.028Z,14.49
2023-05-05T03:37:16.648Z,14.59
2023-05-05T03:39:43.987Z,14.65
2023-05-05T03:42:12.490Z,14.69
2023-05-05T03:44:39.744Z,14.68
2023-05-05T03:47:07.132Z,14.79
2023-05-05T03:49:37.754Z,14.80
2023-05-05T03:52:05.146Z,14.53
2023-05-05T03:54:32.804Z,14.30
2023-05-05T03:57:03.446Z,14.34
2023-05-05T03:59:31.272Z,14.66
2023-05-05T04:01:58.746Z,14.84
2023-05-05T04:04:26.903Z,14.95
2023-05-05T04:06:54.276Z,14.98
2023-05-05T04:09:21.837Z,14.73
2023-05-05T04:11:49.057Z,14.87
2023-05-05T04:14:17.456Z,14.57
2023-05-05T04:16:45.131Z,14.73
2023-05-05T04:19:13.113Z,14.89
2023-05-05T04:21:41.333Z,14.98
2023-05-05T04:24:09.774Z,14.97
2023-05-05T04:26:37.181Z,15.12
2023-05-05T04:29:04.836Z,15.24
2023-05-05T04:31:32.867Z,15.19
2023-05-05T04:34:00.058Z,15.24
2023-05-05T04:36:27.456Z,15.33
2023-05-05T04:38:55.262Z,15.47
2023-05-05T04:41:22.859Z,15.53
2023-05-05T04:43:50.142Z,15.63
2023-05-05T04:46:17.478Z,15.71
2023-05-05T04:48:45.500Z,15.32
2023-05-05T04:51:14.822Z,15.32
2023-05-05T04:53:42.528Z,15.50
2023-05-05T04:56:10.184Z,15.50
2023-05-05T04:58:37.882Z,15.71
2023-05-05T05:01:06.560Z,15.60
2023-05-05T05:03:33.956Z,15.83
2023-05-05T05:06:01.751Z,15.88
2023-05-05T05:08:29.408Z,15.98
2023-05-05T05:10:56.637Z,16.19
2023-05-05T05:13:23.977Z,16.36
2023-05-05T05:15:51.996Z,16.51
2023-05-05T05:18:19.269Z,16.66
2023-05-05T05:20:47.323Z,16.84
2023-05-05T05:23:16.909Z,16.79
2023-05-05T05:25:45.976Z,17.08
2023-05-05T05:28:15.479Z,16.99
2023-05-05T05:30:48.381Z,17.09
2023-05-05T05:33:15.645Z,17.17
2023-05-05T05:35:44.696Z,17.30
2023-05-05T05:38:12.882Z,17.24
2023-05-05T05:40:40.530Z,16.97
2023-05-05T05:43:07.990Z,17.31
2023-05-05T05:45:37.947Z,17.51
2023-05-05T05:48:06.821Z,17.38
2023-05-05T05:50:35.803Z,17.49
2023-05-05T05:53:03.208Z,17.67
2023-05-05T05:55:31.567Z,17.71
2023-05-05T05:57:59.403Z,17.85
2023-05-05T06:00:27.094Z,17.85
2023-05-05T06:37:04.824Z,20.38
2023-05-05T06:39:32.056Z,20.49
2023-05-05T06:41:59.473Z,20.65
2023-05-05T06:44:29.113Z,20.75
2023-05-05T06:46:56.731Z,20.91
2023-05-05T06:49:24.023Z,21.08
2023-05-05T06:51:52.461Z,21.29
2023-05-05T06:54:19.593Z,21.16
2023-05-05T06:56:46.803Z,21.51
2023-05-05T06:59:14.057Z,21.71
2023-05-05T07:01:41.250Z,21.91
2023-05-05T07:04:11.638Z,22.01
2023-05-05T07:06:38.831Z,21.83
2023-05-05T07:14:29.932Z,22.04
2023-05-05T07:16:57.279Z,22.16
2023-05-05T07:19:24.479Z,22.56
2023-05-05T07:21:52.049Z,22.43
2023-05-05T07:24:24.144Z,22.46
2023-05-05T07:26:51.453Z,22.39
2023-05-05T07:29:18.635Z,22.94
2023-05-05T07:31:45.911Z,22.86
2023-05-05T07:34:13.160Z,23.29
2023-05-05T07:36:40.349Z,23.21
2023-05-05T07:39:11.183Z,23.26
2023-05-05T07:41:38.962Z,23.00
2023-05-05T07:51:55.167Z,23.26
2023-05-05T07:54:22.493Z,23.82
2023-05-05T07:56:49.938Z,24.23
2023-05-05T07:59:17.166Z,24.27
2023-05-05T08:01:44.340Z,24.13
2023-05-05T08:04:12.311Z,24.26
2023-05-05T08:06:42.237Z,23.85
2023-05-05T08:09:09.563Z,23.78
2023-05-05T08:11:36.846Z,23.89
2023-05-05T08:14:04.082Z,23.89
2023-05-05T08:16:31.659Z,23.80
2023-05-05T08:18:59.283Z,23.59
2023-05-05T08:21:27.760Z,23.38
2023-05-05T08:23:55.472Z,23.11
2023-05-05T08:26:23.518Z,22.69
2023-05-05T08:28:55.018Z,22.71
2023-05-05T08:31:22.355Z,22.77
2023-05-05T08:33:50.226Z,22.74
2023-05-05T08:36:17.925Z,22.46
2023-05-05T08:38:46.404Z,22.27
2023-05-05T08:41:18.133Z,21.86
2023-05-05T08:43:48.280Z,21.44
2023-05-05T08:46:17.086Z,20.48
2023-05-05T08:48:46.415Z,20.93
2023-05-05T08:51:19.864Z,20.75
2023-05-05T08:54:03.271Z,20.62
2023-05-05T08:56:40.303Z,20.64
2023-05-05T08:59:10.444Z,20.41
2023-05-05T09:01:38.330Z,20.73
2023-05-05T09:04:08.183Z,20.75
2023-05-05T09:06:37.277Z,20.95
2023-05-05T09:09:05.018Z,21.22
2023-05-05T09:11:34.804Z,21.06
2023-05-05T09:14:04.817Z,21.66
2023-05-05T09:16:32.269Z,21.89
2023-05-05T09:19:05.324Z,22.50
2023-05-05T09:21:33.146Z,22.57
2023-05-05T09:24:12.129Z,22.67
2023-05-05T09:26:45.718Z,23.20
2023-05-05T09:29:21.407Z,23.44
2023-05-05T09:32:05.773Z,23.59
2023-05-05T09:34:35.989Z,24.03
2023-05-05T09:37:04.356Z,24.20
2023-05-05T09:39:32.631Z,24.76
2023-05-05T09:42:00.613Z,25.02
2023-05-05T09:44:43.355Z,24.80
2023-05-05T09:47:26.329Z,25.16
2023-05-05T09:49:59.948Z,25.36
2023-05-05T09:52:28.740Z,25.13
2023-05-05T09:54:57.527Z,25.21
2023-05-05T09:57:34.762Z,25.56
2023-05-05T10:00:04.325Z,26.02
2023-05-05T10:02:38.542Z,26.45
2023-05-05T10:05:18.338Z,26.73
2023-05-05T10:07:47.990Z,26.56
2023-05-05T10:10:17.557Z,26.33
2023-05-05T10:12:47.725Z,26.96
2023-05-05T10:15:16.535Z,27.15
2023-05-05T10:20:21.895Z,28.17
2023-05-05T10:22:54.463Z,28.60
2023-05-05T10:25:34.652Z,28.42
2023-05-05T10:28:09.759Z,27.95
2023-05-05T10:30:46.362Z,28.26
2023-05-05T10:33:30.057Z,28.26
2023-05-05T10:36:05.415Z,28.46
2023-05-05T10:38:34.323Z,27.96
2023-05-05T10:41:02.133Z,28.25
2023-05-05T10:43:31.935Z,27.92
2023-05-05T10:46:00.502Z,27.37
2023-05-05T10:48:46.735Z,27.02
2023-05-05T10:52:13.380Z,27.13
2023-05-05T10:55:01.269Z,26.94
2023-05-05T10:57:31.498Z,26.62
2023-05-05T10:59:58.646Z,26.40
2023-05-05T11:02:30.438Z,26.09
2023-05-05T11:05:09.482Z,25.81
2023-05-05T11:07:37.864Z,26.17
2023-05-05T11:10:11.760Z,26.31
2023-05-05T11:13:02.740Z,26.56
2023-05-05T11:15:37.262Z,26.63
2023-05-05T11:18:08.017Z,26.54
2023-05-05T11:20:40.305Z,26.75
2023-05-05T11:23:08.046Z,26.57
2023-05-05T11:25:42.202Z,26.43
2023-05-05T11:28:17.386Z,26.79
2023-05-05T11:30:57.888Z,26.99
2023-05-05T11:33:38.194Z,27.40
2023-05-05T11:36:08.604Z,27.77
2023-05-05T11:38:39.496Z,28.11
2023-05-05T11:41:32.521Z,28.43
2023-05-05T11:44:34.252Z,28.71
2023-05-05T11:47:26.129Z,29.10
2023-05-05T11:49:53.607Z,29.41
2023-05-05T11:52:23.660Z,29.24
2023-05-05T11:54:51.500Z,29.66
2023-05-05T11:57:27.969Z,30.26
2023-05-05T12:00:01.001Z,30.53
2023-05-05T12:02:30.480Z,31.39
2023-05-05T12:05:00.119Z,31.54
2023-05-05T12:07:31.916Z,31.59
2023-05-05T12:09:59.737Z,32.03
2023-05-05T12:12:41.379Z,32.39
2023-05-05T12:15:09.777Z,32.06
2023-05-05T12:17:45.109Z,32.02
2023-05-05T12:20:14.000Z,30.83
2023-05-05T12:22:41.977Z,31.76
2023-05-05T12:25:10.721Z,32.12
2023-05-05T12:27:44.233Z,32.52
2023-05-05T12:30:18.309Z,32.38
2023-05-05T12:32:46.289Z,32.20
2023-05-05T12:35:14.745Z,31.99
2023-05-05T12:37:43.525Z,31.65
2023-05-05T12:40:51.800Z,31.25
2023-05-05T12:43:30.897Z,31.07
2023-05-05T12:46:12.726Z,30.86
2023-05-05T12:48:47.934Z,30.47
2023-05-05T12:51:23.077Z,30.76
2023-05-05T12:54:11.792Z,30.37
2023-05-05T12:56:44.243Z,30.14
2023-05-05T12:59:29.455Z,30.08
2023-05-05T13:02:07.422Z,30.14
2023-05-05T13:04:49.986Z,30.58
2023-05-05T13:07:22.725Z,30.84
2023-05-05T13:09:51.420Z,30.95
2023-05-05T13:12:19.223Z,31.26
2023-05-05T13:14:47.219Z,31.57
2023-05-05T13:17:14.962Z,30.63
2023-05-05T13:19:46.074Z,31.00
2023-05-05T13:22:13.842Z,31.05
2023-05-05T13:24:51.807Z,30.88
2023-05-05T13:27:20.721Z,31.15
2023-05-05T13:29:48.646Z,31.37
2023-05-05T13:32:15.906Z,31.35
2023-05-05T13:34:44.208Z,31.24
2023-05-05T13:37:11.771Z,31.43
2023-05-05T13:39:39.835Z,31.43
2023-05-05T13:42:07.280Z,32.58
2023-05-05T13:44:35.265Z,33.43
2023-05-05T13:47:03.107Z,34.17
2023-05-05T13:49:30.340Z,35.71
2023-05-05T13:51:58.532Z,36.31
2023-05-05T13:54:26.086Z,37.60
2023-05-05T13:56:53.975Z,37.61
2023-05-05T13:59:21.753Z,38.09
2023-05-05T14:01:49.777Z,39.28
2023-05-05T14:04:17.425Z,38.80
2023-05-05T14:06:45.699Z,38.66
2023-05-05T14:09:13.569Z,37.64
2023-05-05T14:11:41.313Z,38.04
2023-05-05T14:14:08.898Z,35.63
2023-05-05T14:16:36.654Z,35.63
2023-05-05T14:19:04.641Z,34.58
2023-05-05T14:21:32.666Z,33.69
2023-05-05T14:24:00.891Z,31.76
2023-05-05T14:26:31.749Z,30.74
2023-05-05T14:29:00.002Z,30.64
2023-05-05T14:31:28.599Z,30.60
2023-05-05T14:33:56.300Z,30.59
2023-05-05T14:36:23.922Z,30.24
2023-05-05T14:38:51.662Z,30.07
2023-05-05T14:41:19.388Z,30.00
2023-05-05T14:43:47.311Z,29.81
2023-05-05T14:46:15.746Z,29.20
2023-05-05T14:48:43.439Z,29.07
2023-05-05T14:51:11.191Z,28.90
2023-05-05T14:53:38.783Z,28.69
2023-05-05T14:56:07.273Z,28.62
2023-05-05T14:58:35.186Z,28.45
2023-05-05T15:01:02.388Z,28.20
2023-05-05T15:03:30.173Z,28.09
2023-05-05T15:05:58.672Z,27.95
2023-05-05T15:08:26.418Z,27.96
2023-05-05T15:10:53.776Z,27.70
2023-05-05T15:13:21.032Z,27.47
2023-05-05T15:15:49.031Z,27.22
2023-05-05T15:18:17.311Z,27.12
2023-05-05T15:20:44.665Z,26.89
2023-05-05T15:23:17.156Z,26.75
2023-05-05T15:25:45.533Z,26.45
2023-05-05T15:28:13.627Z,26.32
2023-05-05T15:30:41.520Z,26.06
2023-05-05T15:33:08.712Z,26.00
2023-05-05T15:35:43.012Z,25.87
2023-05-05T15:38:10.898Z,25.72
2023-05-05T15:40:38.257Z,25.79
2023-05-05T15:43:05.608Z,25.65
2023-05-05T15:45:33.402Z,25.54
2023-05-05T15:48:01.038Z,25.47
2023-05-05T15:50:28.328Z,25.48
2023-05-05T15:52:56.970Z,25.30
2023-05-05T15:55:27.676Z,25.18
2023-05-05T15:57:55.328Z,25.17
2023-05-05T16:00:22.926Z,25.03
2023-05-05T16:02:50.302Z,24.57
2023-05-05T16:05:17.716Z,23.55
2023-05-05T16:07:44.954Z,22.73
2023-05-05T16:10:12.298Z,22.00
2023-05-05T16:12:39.561Z,21.49
2023-05-05T16:15:08.111Z,21.11
2023-05-05T16:17:35.862Z,20.81
2023-05-05T16:20:04.140Z,20.50
2023-05-05T16:22:31.265Z,20.10
2023-05-05T16:24:58.534Z,19.46
2023-05-05T16:27:26.500Z,19.51
2023-05-05T16:29:53.670Z,19.16
2023-05-05T16:32:20.924Z,18.64
2023-05-05T16:34:48.466Z,18.56
2023-05-05T16:37:15.905Z,18.59
2023-05-05T16:39:43.017Z,18.72
2023-05-05T16:42:10.157Z,18.79
2023-05-05T16:44:43.209Z,18.95
2023-05-05T16:47:10.856Z,18.45
2023-05-05T16:49:38.189Z,18.48
2023-05-05T16:52:05.386Z,18.58
2023-05-05T16:54:32.913Z,18.23
2023-05-05T16:57:00.172Z,18.30
2023-05-05T16:59:28.095Z,18.19
2023-05-05T17:01:57.143Z,17.92
2023-05-05T17:04:25.177Z,17.91
2023-05-05T17:06:55.021Z,17.90
2023-05-05T17:09:25.556Z,17.97
2023-05-05T17:11:52.834Z,18.09
2023-05-05T17:14:20.286Z,18.11
2023-05-05T17:16:47.796Z,17.81
2023-05-05T17:19:15.874Z,18.23
2023-05-05T17:21:43.376Z,18.65
2023-05-05T17:24:11.452Z,18.62
2023-05-05T17:26:39.726Z,18.16
2023-05-05T17:29:07.287Z,18.13
2023-05-05T17:31:35.306Z,18.20
2023-05-05T17:34:02.462Z,18.02
2023-05-05T17:36:30.176Z,18.21
2023-05-05T17:38:58.418Z,18.31
2023-05-05T17:41:28.651Z,18.43
2023-05-05T17:43:56.098Z,18.32
2023-05-05T17:46:23.297Z,18.17
2023-05-05T17:48:52.013Z,18.33
2023-05-05T17:51:22.613Z,18.46
2023-05-05T17:53:49.835Z,18.43
2023-05-05T17:56:17.092Z,18.23
2023-05-05T17:58:44.250Z,18.44
2023-05-05T18:01:25.888Z,18.35
2023-05-05T18:03:53.559Z,18.48
2023-05-05T18:06:21.037Z,18.21
2023-05-05T18:08:48.342Z,18.41
2023-05-05T18:11:15.603Z,17.66
2023-05-05T18:13:43.520Z,18.00
2023-05-05T18:16:11.176Z,18.10
2023-05-05T18:18:41.100Z,18.21
2023-05-05T18:21:12.186Z,18.22
2023-05-05T18:23:40.809Z,17.85
2023-05-05T18:26:08.751Z,17.81
2023-05-05T18:28:37.563Z,17.77
2023-05-05T18:31:05.084Z,17.96
2023-05-05T18:33:32.362Z,17.82
2023-05-05T18:35:59.942Z,17.94
2023-05-05T18:38:27.644Z,18.04
2023-05-05T18:40:55.147Z,17.98
2023-05-05T18:43:22.297Z,18.01
2023-05-05T18:45:50.901Z,17.81
2023-05-05T18:48:19.157Z,17.76
2023-05-05T18:50:46.797Z,17.73
2023-05-05T18:53:14.948Z,17.60
2023-05-05T18:55:43.362Z,17.59
2023-05-05T18:58:10.655Z,17.51
2023-05-05T19:00:38.297Z,17.42
2023-05-05T19:03:06.388Z,17.37
2023-05-05T19:05:33.569Z,17.18
2023-05-05T19:08:00.693Z,17.13
2023-05-05T19:10:28.038Z,17.24
2023-05-05T19:12:55.698Z,17.26
2023-05-05T19:15:23.954Z,17.25
2023-05-05T19:17:52.806Z,17.25
2023-05-05T19:20:21.099Z,17.21
2023-05-05T19:22:55.135Z,17.12
2023-05-05T19:25:26.618Z,17.15
2023-05-05T19:27:54.440Z,17.05
2023-05-05T19:30:22.448Z,17.11
2023-05-05T19:32:49.649Z,17.13
2023-05-05T19:35:17.355Z,16.96
2023-05-05T19:37:46.067Z,17.07
2023-05-05T19:40:14.116Z,17.00
2023-05-05T19:42:41.465Z,16.80
2023-05-05T19:45:09.621Z,16.69
2023-05-05T19:47:36.985Z,16.47
2023-05-05T19:50:04.601Z,16.43
2023-05-05T19:52:31.829Z,16.67
2023-05-05T19:54:59.502Z,16.94
2023-05-05T19:57:27.562Z,16.90
2023-05-05T19:59:54.755Z,16.94
2023-05-05T20:02:24.068Z,16.36
2023-05-05T20:04:51.412Z,16.14
2023-05-05T20:07:19.088Z,15.92
2023-05-05T20:09:46.963Z,16.03
2023-05-05T20:12:14.519Z,15.84
2023-05-05T20:14:42.001Z,16.31
2023-05-05T20:17:09.395Z,16.59
2023-05-05T20:19:37.011Z,16.73
2023-05-05T20:22:04.935Z,16.72
2023-05-05T20:24:33.828Z,16.64
2023-05-05T20:27:02.003Z,16.57
2023-05-05T20:29:29.234Z,16.81
2023-05-05T20:31:56.457Z,16.89
2023-05-05T20:34:25.067Z,17.07
2023-05-05T20:36:52.828Z,17.12
2023-05-05T20:39:21.194Z,17.17
2023-05-05T20:41:48.936Z,17.06
2023-05-05T20:44:16.493Z,17.10
2023-05-05T20:46:43.702Z,17.04
2023-05-05T20:49:10.897Z,17.03
2023-05-05T20:51:38.014Z,17.00
2023-05-05T20:54:05.556Z,17.04
2023-05-05T20:56:32.692Z,17.10
2023-05-05T20:58:59.997Z,17.08
2023-05-05T21:01:28.479Z,17.22
2023-05-05T21:03:55.730Z,17.28
2023-05-05T21:06:23.398Z,17.07
2023-05-05T21:21:05.487Z,17.07
2023-05-05T21:31:19.777Z,17.02
2023-05-05T21:33:46.279Z,16.84
2023-05-05T21:36:19.042Z,16.94
2023-05-05T21:38:47.099Z,16.98
2023-05-05T21:41:14.443Z,16.92
2023-05-05T21:43:41.629Z,17.08
2023-05-05T21:46:09.229Z,17.03
2023-05-05T21:48:38.845Z,17.09
2023-05-05T21:51:06.757Z,17.10
2023-05-05T21:53:34.107Z,17.17
2023-05-05T21:56:01.867Z,17.08
2023-05-05T21:58:29.232Z,17.14
2023-05-05T22:00:56.382Z,17.12
2023-05-05T22:03:23.668Z,17.19
2023-05-05T22:05:56.329Z,17.31
2023-05-05T22:08:23.962Z,17.28
2023-05-05T22:10:51.373Z,17.27
2023-05-05T22:13:18.942Z,17.08
2023-05-05T22:15:47.586Z,17.21
2023-05-05T22:18:16.021Z,17.20
2023-05-05T22:20:44.023Z,17.28
2023-05-05T22:23:17.239Z,17.31
2023-05-05T22:25:44.730Z,17.23
2023-05-05T22:28:12.437Z,17.18
2023-05-05T22:30:40.328Z,17.10
2023-05-05T22:33:07.943Z,16.99
2023-05-05T22:35:35.311Z,17.01
2023-05-05T22:38:02.797Z,17.06
2023-05-05T22:40:30.282Z,17.07
2023-05-05T22:42:57.477Z,17.08
2023-05-05T22:45:26.254Z,17.07
2023-05-05T22:47:53.918Z,17.16
2023-05-05T22:50:21.181Z,17.08
2023-05-05T22:52:48.368Z,17.17
2023-05-05T22:55:16.011Z,17.16
2023-05-05T22:57:43.382Z,17.18
2023-05-05T23:00:11.127Z,17.15
2023-05-05T23:02:38.810Z,17.06
2023-05-05T23:05:06.668Z,17.09
2023-05-05T23:07:33.777Z,17.09
2023-05-05T23:10:00.988Z,17.03
2023-05-05T23:12:28.177Z,16.93
2023-05-05T23:14:55.730Z,16.95
2023-05-05T23:17:23.541Z,16.74
2023-05-05T23:19:50.948Z,16.56
2023-05-05T23:22:18.067Z,16.70
2023-05-05T23:24:45.366Z,16.93
2023-05-05T23:27:13.208Z,17.00
2023-05-05T23:29:40.387Z,16.86
2023-05-05T23:32:08.549Z,16.92
2023-05-05T23:34:41.215Z,16.80
2023-05-05T23:37:08.770Z,16.84
2023-05-05T23:39:36.030Z,16.85
2023-05-05T23:42:03.294Z,16.80
2023-05-05T23:44:30.670Z,16.89
2023-05-05T23:46:58.343Z,16.96
2023-05-05T23:49:26.404Z,17.00
2023-05-05T23:51:53.602Z,17.00
2023-05-05T23:54:20.854Z,16.99
2023-05-05T23:56:48.001Z,16.95
2023-05-05T23:59:15.273Z,16.97
